sensor_id;sensor_type;location;lat;lon;timestamp;temperature;humidity
18613;DHT22;9436;52.152;21.032;2022-12-24T00:00:58;7.50;99.90
18613;DHT22;9436;52.152;21.032;2022-12-24T00:03:25;7.50;99.90
18613;DHT22;9436;52.152;21.032;2022-12-24T00:05:52;7.40;99.90
18613;DHT22;9436;52.152;21.032;2022-12-24T00:08:19;7.40;99.90
18613;DHT22;9436;52.152;21.032;2022-12-24T00:10:50;7.40;99.90
18613;DHT22;9436;52.152;21.032;2022-12-24T00:13:17;7.50;99.90
18613;DHT22;9436;52.152;21.032;2022-12-24T00:15:46;7.50;99.90
18613;DHT22;9436;52.152;21.032;2022-12-24T00:18:13;7.40;99.90
18613;DHT22;9436;52.152;21.032;2022-12-24T00:20:40;7.40;99.90
18613;DHT22;9436;52.152;21.032;2022-12-24T00:23:07;7.50;99.90
18613;DHT22;9436;52.152;21.032;2022-12-24T00:25:33;7.50;99.90
18613;DHT22;9436;52.152;21.032;2022-12-24T00:28:00;7.50;99.90
18613;DHT22;9436;52.152;21.032;2022-12-24T00:30:27;7.50;99.90
18613;DHT22;9436;52.152;21.032;2022-12-24T00:32:55;7.40;99.90
18613;DHT22;9436;52.152;21.032;2022-12-24T00:35:22;7.40;99.90
18613;DHT22;9436;52.152;21.032;2022-12-24T00:37:49;7.30;99.90
18613;DHT22;9436;52.152;21.032;2022-12-24T00:40:18;7.40;99.90
18613;DHT22;9436;52.152;21.032;2022-12-24T00:42:45;7.50;99.90
18613;DHT22;9436;52.152;21.032;2022-12-24T00:45:12;7.50;99.90
18613;DHT22;9436;52.152;21.032;2022-12-24T00:47:39;7.40;99.90
18613;DHT22;9436;52.152;21.032;2022-12-24T00:50:08;7.40;99.90
18613;DHT22;9436;52.152;21.032;2022-12-24T00:52:35;7.40;99.90
18613;DHT22;9436;52.152;21.032;2022-12-24T00:55:02;7.40;99.90
18613;DHT22;9436;52.152;21.032;2022-12-24T00:57:29;7.40;99.90
18613;DHT22;9436;52.152;21.032;2022-12-24T00:59:56;7.40;99.90
18613;DHT22;9436;52.152;21.032;2022-12-24T01:02:23;7.40;99.90
18613;DHT22;9436;52.152;21.032;2022-12-24T01:04:49;7.30;99.90
18613;DHT22;9436;52.152;21.032;2022-12-24T01:07:19;7.40;99.90
18613;DHT22;9436;52.152;21.032;2022-12-24T01:09:46;7.30;99.90
18613;DHT22;9436;52.152;21.032;2022-12-24T01:12:13;7.30;99.90
18613;DHT22;9436;52.152;21.032;2022-12-24T01:14:40;7.20;99.90
18613;DHT22;9436;52.152;21.032;2022-12-24T01:17:07;7.20;99.90
18613;DHT22;9436;52.152;21.032;2022-12-24T01:19:33;7.20;99.90
18613;DHT22;9436;52.152;21.032;2022-12-24T01:22:00;7.30;99.90
18613;DHT22;9436;52.152;21.032;2022-12-24T01:24:28;7.30;99.90
18613;DHT22;9436;52.152;21.032;2022-12-24T01:26:55;7.30;99.90
18613;DHT22;9436;52.152;21.032;2022-12-24T01:29:22;7.20;99.90
18613;DHT22;9436;52.152;21.032;2022-12-24T01:31:49;7.20;99.90
18613;DHT22;9436;52.152;21.032;2022-12-24T01:34:15;7.30;99.90
18613;DHT22;9436;52.152;21.032;2022-12-24T01:36:42;7.30;99.90
18613;DHT22;9436;52.152;21.032;2022-12-24T01:39:09;7.20;99.90
18613;DHT22;9436;52.152;21.032;2022-12-24T01:41:37;7.10;99.90
18613;DHT22;9436;52.152;21.032;2022-12-24T01:44:22;7.20;99.90
18613;DHT22;9436;52.152;21.032;2022-12-24T01:46:52;7.20;99.90
18613;DHT22;9436;52.152;21.032;2022-12-24T01:49:21;7.20;99.90
18613;DHT22;9436;52.152;21.032;2022-12-24T01:51:51;7.20;99.90
18613;DHT22;9436;52.152;21.032;2022-12-24T01:54:27;7.20;99.90
18613;DHT22;9436;52.152;21.032;2022-12-24T01:56:59;7.20;99.90
18613;DHT22;9436;52.152;21.032;2022-12-24T01:59:27;7.20;99.90
18613;DHT22;9436;52.152;21.032;2022-12-24T02:01:54;7.20;99.90
18613;DHT22;9436;52.152;21.032;2022-12-24T02:04:28;7.20;99.90
18613;DHT22;9436;52.152;21.032;2022-12-24T02:06:57;7.20;99.90
18613;DHT22;9436;52.152;21.032;2022-12-24T02:09:24;7.20;99.90
18613;DHT22;9436;52.152;21.032;2022-12-24T02:11:51;7.30;99.90
18613;DHT22;9436;52.152;21.032;2022-12-24T02:14:19;7.30;99.90
18613;DHT22;9436;52.152;21.032;2022-12-24T02:16:53;7.30;99.90
18613;DHT22;9436;52.152;21.032;2022-12-24T02:19:46;7.20;99.90
18613;DHT22;9436;52.152;21.032;2022-12-24T02:22:22;7.10;99.90
18613;DHT22;9436;52.152;21.032;2022-12-24T02:25:01;7.20;99.90
18613;DHT22;9436;52.152;21.032;2022-12-24T02:27:44;7.20;99.90
18613;DHT22;9436;52.152;21.032;2022-12-24T02:30:17;7.00;99.90
18613;DHT22;9436;52.152;21.032;2022-12-24T02:32:52;7.00;99.90
18613;DHT22;9436;52.152;21.032;2022-12-24T02:35:26;7.10;99.90
18613;DHT22;9436;52.152;21.032;2022-12-24T02:38:03;7.00;99.90
18613;DHT22;9436;52.152;21.032;2022-12-24T02:40:37;7.00;99.90
18613;DHT22;9436;52.152;21.032;2022-12-24T02:43:10;7.00;99.90
18613;DHT22;9436;52.152;21.032;2022-12-24T02:45:40;7.00;99.90
18613;DHT22;9436;52.152;21.032;2022-12-24T02:48:09;6.90;99.90
18613;DHT22;9436;52.152;21.032;2022-12-24T02:50:37;7.00;99.90
18613;DHT22;9436;52.152;21.032;2022-12-24T02:53:05;7.00;99.90
18613;DHT22;9436;52.152;21.032;2022-12-24T02:55:38;7.00;99.90
18613;DHT22;9436;52.152;21.032;2022-12-24T02:58:18;7.00;99.90
18613;DHT22;9436;52.152;21.032;2022-12-24T03:00:57;7.10;99.90
18613;DHT22;9436;52.152;21.032;2022-12-24T03:03:48;7.10;99.90
18613;DHT22;9436;52.152;21.032;2022-12-24T03:06:27;7.00;99.90
18613;DHT22;9436;52.152;21.032;2022-12-24T03:09:01;6.90;99.90
18613;DHT22;9436;52.152;21.032;2022-12-24T03:11:32;6.90;99.90
18613;DHT22;9436;52.152;21.032;2022-12-24T03:14:00;6.90;99.90
18613;DHT22;9436;52.152;21.032;2022-12-24T03:16:30;6.90;99.90
18613;DHT22;9436;52.152;21.032;2022-12-24T03:18:58;6.90;99.90
18613;DHT22;9436;52.152;21.032;2022-12-24T03:21:28;6.80;99.90
18613;DHT22;9436;52.152;21.032;2022-12-24T03:23:57;6.80;99.90
18613;DHT22;9436;52.152;21.032;2022-12-24T03:26:24;6.70;99.90
18613;DHT22;9436;52.152;21.032;2022-12-24T03:28:52;6.70;99.90
18613;DHT22;9436;52.152;21.032;2022-12-24T03:31:19;6.70;99.90
18613;DHT22;9436;52.152;21.032;2022-12-24T03:33:48;6.70;99.90
18613;DHT22;9436;52.152;21.032;2022-12-24T03:36:15;6.70;99.90
18613;DHT22;9436;52.152;21.032;2022-12-24T03:38:42;6.70;99.90
18613;DHT22;9436;52.152;21.032;2022-12-24T03:41:09;6.70;99.90
18613;DHT22;9436;52.152;21.032;2022-12-24T03:43:35;6.70;99.90
18613;DHT22;9436;52.152;21.032;2022-12-24T03:46:04;6.70;99.90
18613;DHT22;9436;52.152;21.032;2022-12-24T03:48:32;6.70;99.90
18613;DHT22;9436;52.152;21.032;2022-12-24T03:51:02;6.80;99.90
18613;DHT22;9436;52.152;21.032;2022-12-24T03:53:29;6.80;99.90
18613;DHT22;9436;52.152;21.032;2022-12-24T03:55:56;6.70;99.90
18613;DHT22;9436;52.152;21.032;2022-12-24T03:58:23;6.70;99.90
18613;DHT22;9436;52.152;21.032;2022-12-24T04:00:51;6.70;99.90
18613;DHT22;9436;52.152;21.032;2022-12-24T04:03:18;6.70;99.90
18613;DHT22;9436;52.152;21.032;2022-12-24T04:05:45;6.70;99.90
18613;DHT22;9436;52.152;21.032;2022-12-24T04:08:13;6.70;99.90
18613;DHT22;9436;52.152;21.032;2022-12-24T04:10:40;6.60;99.90
18613;DHT22;9436;52.152;21.032;2022-12-24T04:13:07;6.60;99.90
18613;DHT22;9436;52.152;21.032;2022-12-24T04:15:33;6.60;99.90
18613;DHT22;9436;52.152;21.032;2022-12-24T04:18:00;6.60;99.90
18613;DHT22;9436;52.152;21.032;2022-12-24T04:20:27;6.60;99.90
18613;DHT22;9436;52.152;21.032;2022-12-24T04:22:54;6.60;99.90
18613;DHT22;9436;52.152;21.032;2022-12-24T04:25:22;6.60;99.90
18613;DHT22;9436;52.152;21.032;2022-12-24T04:27:48;6.60;99.90
18613;DHT22;9436;52.152;21.032;2022-12-24T04:30:15;6.60;99.90
18613;DHT22;9436;52.152;21.032;2022-12-24T04:32:42;6.60;99.90
18613;DHT22;9436;52.152;21.032;2022-12-24T04:35:09;6.60;99.90
18613;DHT22;9436;52.152;21.032;2022-12-24T04:37:35;6.60;99.90
18613;DHT22;9436;52.152;21.032;2022-12-24T04:40:02;6.60;99.90
18613;DHT22;9436;52.152;21.032;2022-12-24T04:42:31;6.60;99.90
18613;DHT22;9436;52.152;21.032;2022-12-24T04:44:57;6.50;99.90
18613;DHT22;9436;52.152;21.032;2022-12-24T04:47:24;6.50;99.90
18613;DHT22;9436;52.152;21.032;2022-12-24T04:49:51;6.60;99.90
18613;DHT22;9436;52.152;21.032;2022-12-24T04:52:18;6.50;99.90
18613;DHT22;9436;52.152;21.032;2022-12-24T04:54:44;6.50;99.90
18613;DHT22;9436;52.152;21.032;2022-12-24T04:57:12;6.40;99.90
18613;DHT22;9436;52.152;21.032;2022-12-24T04:59:40;6.40;99.90
18613;DHT22;9436;52.152;21.032;2022-12-24T05:02:07;6.40;99.90
18613;DHT22;9436;52.152;21.032;2022-12-24T05:04:37;6.40;99.90
18613;DHT22;9436;52.152;21.032;2022-12-24T05:07:03;6.40;99.90
18613;DHT22;9436;52.152;21.032;2022-12-24T05:09:30;6.40;99.90
18613;DHT22;9436;52.152;21.032;2022-12-24T05:11:57;6.40;99.90
18613;DHT22;9436;52.152;21.032;2022-12-24T05:14:24;6.40;99.90
18613;DHT22;9436;52.152;21.032;2022-12-24T05:16:52;6.30;99.90
18613;DHT22;9436;52.152;21.032;2022-12-24T05:19:18;6.20;99.90
18613;DHT22;9436;52.152;21.032;2022-12-24T05:21:45;6.20;99.90
18613;DHT22;9436;52.152;21.032;2022-12-24T05:24:32;6.20;99.90
18613;DHT22;9436;52.152;21.032;2022-12-24T05:27:01;6.20;99.90
18613;DHT22;9436;52.152;21.032;2022-12-24T05:29:28;6.10;99.90
18613;DHT22;9436;52.152;21.032;2022-12-24T05:31:57;6.10;99.90
18613;DHT22;9436;52.152;21.032;2022-12-24T05:34:23;6.20;99.90
18613;DHT22;9436;52.152;21.032;2022-12-24T05:36:50;6.20;99.90
18613;DHT22;9436;52.152;21.032;2022-12-24T05:39:17;6.20;99.90
18613;DHT22;9436;52.152;21.032;2022-12-24T05:41:45;6.20;99.90
18613;DHT22;9436;52.152;21.032;2022-12-24T05:44:12;6.10;99.90
18613;DHT22;9436;52.152;21.032;2022-12-24T05:46:39;6.20;99.90
18613;DHT22;9436;52.152;21.032;2022-12-24T05:49:07;6.10;99.90
18613;DHT22;9436;52.152;21.032;2022-12-24T05:51:34;6.20;99.90
18613;DHT22;9436;52.152;21.032;2022-12-24T05:54:01;6.20;99.90
18613;DHT22;9436;52.152;21.032;2022-12-24T05:56:28;6.20;99.90
18613;DHT22;9436;52.152;21.032;2022-12-24T05:58:54;6.20;99.90
18613;DHT22;9436;52.152;21.032;2022-12-24T06:01:23;6.30;99.90
18613;DHT22;9436;52.152;21.032;2022-12-24T06:03:51;6.20;99.90
18613;DHT22;9436;52.152;21.032;2022-12-24T06:06:22;6.20;99.90
18613;DHT22;9436;52.152;21.032;2022-12-24T06:08:50;6.20;99.90
18613;DHT22;9436;52.152;21.032;2022-12-24T06:11:20;6.20;99.90
18613;DHT22;9436;52.152;21.032;2022-12-24T06:13:47;6.20;99.90
18613;DHT22;9436;52.152;21.032;2022-12-24T06:16:16;6.20;99.90
18613;DHT22;9436;52.152;21.032;2022-12-24T06:18:43;6.10;99.90
18613;DHT22;9436;52.152;21.032;2022-12-24T06:21:11;6.10;99.90
18613;DHT22;9436;52.152;21.032;2022-12-24T06:23:41;6.10;99.90
18613;DHT22;9436;52.152;21.032;2022-12-24T06:26:11;6.10;99.90
18613;DHT22;9436;52.152;21.032;2022-12-24T06:28:38;6.10;99.90
18613;DHT22;9436;52.152;21.032;2022-12-24T06:31:06;6.00;99.90
18613;DHT22;9436;52.152;21.032;2022-12-24T06:33:36;6.10;99.90
18613;DHT22;9436;52.152;21.032;2022-12-24T06:36:05;6.00;99.90
18613;DHT22;9436;52.152;21.032;2022-12-24T06:38:32;6.00;99.90
18613;DHT22;9436;52.152;21.032;2022-12-24T06:41:04;6.00;99.90
18613;DHT22;9436;52.152;21.032;2022-12-24T06:43:31;6.00;99.90
18613;DHT22;9436;52.152;21.032;2022-12-24T06:46:00;6.10;99.90
18613;DHT22;9436;52.152;21.032;2022-12-24T06:48:27;6.10;99.90
18613;DHT22;9436;52.152;21.032;2022-12-24T06:50:53;6.10;99.90
18613;DHT22;9436;52.152;21.032;2022-12-24T06:53:20;6.00;99.90
18613;DHT22;9436;52.152;21.032;2022-12-24T06:55:48;6.00;99.90
18613;DHT22;9436;52.152;21.032;2022-12-24T06:58:17;5.90;99.90
18613;DHT22;9436;52.152;21.032;2022-12-24T07:00:43;5.90;99.90
18613;DHT22;9436;52.152;21.032;2022-12-24T07:03:12;5.90;99.90
18613;DHT22;9436;52.152;21.032;2022-12-24T07:05:40;6.00;99.90
18613;DHT22;9436;52.152;21.032;2022-12-24T07:08:08;6.00;99.90
18613;DHT22;9436;52.152;21.032;2022-12-24T07:10:34;6.00;99.90
18613;DHT22;9436;52.152;21.032;2022-12-24T07:13:01;6.00;99.90
18613;DHT22;9436;52.152;21.032;2022-12-24T07:15:29;6.00;99.90
18613;DHT22;9436;52.152;21.032;2022-12-24T07:17:56;6.10;99.90
18613;DHT22;9436;52.152;21.032;2022-12-24T07:20:23;6.10;99.90
18613;DHT22;9436;52.152;21.032;2022-12-24T07:22:50;6.10;99.90
18613;DHT22;9436;52.152;21.032;2022-12-24T07:25:18;6.00;99.90
18613;DHT22;9436;52.152;21.032;2022-12-24T07:27:44;6.00;99.90
18613;DHT22;9436;52.152;21.032;2022-12-24T07:30:11;6.00;99.90
18613;DHT22;9436;52.152;21.032;2022-12-24T07:32:39;6.10;99.90
18613;DHT22;9436;52.152;21.032;2022-12-24T07:35:07;6.10;99.90
18613;DHT22;9436;52.152;21.032;2022-12-24T07:37:34;6.10;99.90
18613;DHT22;9436;52.152;21.032;2022-12-24T07:40:01;6.10;99.90
18613;DHT22;9436;52.152;21.032;2022-12-24T07:42:30;6.10;99.90
18613;DHT22;9436;52.152;21.032;2022-12-24T07:44:57;6.10;99.90
18613;DHT22;9436;52.152;21.032;2022-12-24T07:47:24;6.10;99.90
18613;DHT22;9436;52.152;21.032;2022-12-24T07:49:52;6.10;99.90
18613;DHT22;9436;52.152;21.032;2022-12-24T07:52:19;6.10;99.90
18613;DHT22;9436;52.152;21.032;2022-12-24T07:54:46;6.10;99.90
18613;DHT22;9436;52.152;21.032;2022-12-24T07:57:12;6.10;99.90
18613;DHT22;9436;52.152;21.032;2022-12-24T07:59:39;6.10;99.90
18613;DHT22;9436;52.152;21.032;2022-12-24T08:02:09;6.00;99.90
18613;DHT22;9436;52.152;21.032;2022-12-24T08:04:36;6.00;99.90
18613;DHT22;9436;52.152;21.032;2022-12-24T08:07:05;6.00;99.90
18613;DHT22;9436;52.152;21.032;2022-12-24T08:09:33;6.00;99.90
18613;DHT22;9436;52.152;21.032;2022-12-24T08:12:00;6.00;99.90
18613;DHT22;9436;52.152;21.032;2022-12-24T08:14:27;6.10;99.90
18613;DHT22;9436;52.152;21.032;2022-12-24T08:16:54;6.10;99.90
18613;DHT22;9436;52.152;21.032;2022-12-24T08:19:21;6.00;99.90
18613;DHT22;9436;52.152;21.032;2022-12-24T08:21:48;6.00;99.90
18613;DHT22;9436;52.152;21.032;2022-12-24T08:24:16;6.10;99.90
18613;DHT22;9436;52.152;21.032;2022-12-24T08:26:43;6.00;99.90
18613;DHT22;9436;52.152;21.032;2022-12-24T08:29:10;6.00;99.90
18613;DHT22;9436;52.152;21.032;2022-12-24T08:31:37;6.00;99.90
18613;DHT22;9436;52.152;21.032;2022-12-24T08:34:05;6.00;99.90
18613;DHT22;9436;52.152;21.032;2022-12-24T08:36:33;6.00;99.90
18613;DHT22;9436;52.152;21.032;2022-12-24T08:39:00;6.10;99.90
18613;DHT22;9436;52.152;21.032;2022-12-24T08:41:29;6.20;99.90
18613;DHT22;9436;52.152;21.032;2022-12-24T08:43:56;6.10;99.90
18613;DHT22;9436;52.152;21.032;2022-12-24T08:46:23;6.10;99.90
18613;DHT22;9436;52.152;21.032;2022-12-24T08:48:50;6.20;99.90
18613;DHT22;9436;52.152;21.032;2022-12-24T08:51:17;6.20;99.90
18613;DHT22;9436;52.152;21.032;2022-12-24T08:53:44;6.30;99.90
18613;DHT22;9436;52.152;21.032;2022-12-24T08:56:11;6.30;99.90
18613;DHT22;9436;52.152;21.032;2022-12-24T08:58:40;6.30;99.90
18613;DHT22;9436;52.152;21.032;2022-12-24T09:01:11;6.30;99.90
18613;DHT22;9436;52.152;21.032;2022-12-24T09:03:38;6.30;99.90
18613;DHT22;9436;52.152;21.032;2022-12-24T09:06:06;6.40;99.90
18613;DHT22;9436;52.152;21.032;2022-12-24T09:08:33;6.30;99.90
18613;DHT22;9436;52.152;21.032;2022-12-24T09:11:03;6.20;99.90
18613;DHT22;9436;52.152;21.032;2022-12-24T09:13:30;6.30;99.90
18613;DHT22;9436;52.152;21.032;2022-12-24T09:15:58;6.30;99.90
18613;DHT22;9436;52.152;21.032;2022-12-24T09:18:25;6.30;99.90
18613;DHT22;9436;52.152;21.032;2022-12-24T09:20:58;6.30;99.90
18613;DHT22;9436;52.152;21.032;2022-12-24T09:23:25;6.30;99.90
18613;DHT22;9436;52.152;21.032;2022-12-24T09:25:52;6.30;99.90
18613;DHT22;9436;52.152;21.032;2022-12-24T09:28:18;6.30;99.90
18613;DHT22;9436;52.152;21.032;2022-12-24T09:30:54;6.30;99.90
18613;DHT22;9436;52.152;21.032;2022-12-24T09:33:22;6.30;99.90
18613;DHT22;9436;52.152;21.032;2022-12-24T09:35:50;6.30;99.90
18613;DHT22;9436;52.152;21.032;2022-12-24T09:38:17;6.30;99.90
18613;DHT22;9436;52.152;21.032;2022-12-24T09:40:43;6.40;99.90
18613;DHT22;9436;52.152;21.032;2022-12-24T09:43:14;6.40;99.90
18613;DHT22;9436;52.152;21.032;2022-12-24T09:45:47;6.40;99.90
18613;DHT22;9436;52.152;21.032;2022-12-24T09:48:16;6.50;99.90
18613;DHT22;9436;52.152;21.032;2022-12-24T09:50:49;6.50;99.90
18613;DHT22;9436;52.152;21.032;2022-12-24T09:53:21;6.60;99.90
18613;DHT22;9436;52.152;21.032;2022-12-24T09:55:53;6.60;99.90
18613;DHT22;9436;52.152;21.032;2022-12-24T09:58:26;6.70;99.90
18613;DHT22;9436;52.152;21.032;2022-12-24T10:00:55;6.60;99.90
18613;DHT22;9436;52.152;21.032;2022-12-24T10:03:22;6.60;99.90
18613;DHT22;9436;52.152;21.032;2022-12-24T10:06:00;6.50;99.90
18613;DHT22;9436;52.152;21.032;2022-12-24T10:08:34;6.50;99.90
18613;DHT22;9436;52.152;21.032;2022-12-24T10:11:13;6.60;99.90
18613;DHT22;9436;52.152;21.032;2022-12-24T10:13:52;6.70;99.90
18613;DHT22;9436;52.152;21.032;2022-12-24T10:16:30;6.70;99.90
18613;DHT22;9436;52.152;21.032;2022-12-24T10:19:04;6.70;99.90
18613;DHT22;9436;52.152;21.032;2022-12-24T10:21:44;6.60;99.90
18613;DHT22;9436;52.152;21.032;2022-12-24T10:24:17;6.60;99.90
18613;DHT22;9436;52.152;21.032;2022-12-24T10:26:49;6.60;99.90
18613;DHT22;9436;52.152;21.032;2022-12-24T10:29:20;6.70;99.90
18613;DHT22;9436;52.152;21.032;2022-12-24T10:31:54;6.70;99.90
18613;DHT22;9436;52.152;21.032;2022-12-24T10:34:23;6.50;99.90
18613;DHT22;9436;52.152;21.032;2022-12-24T10:36:53;6.60;99.90
18613;DHT22;9436;52.152;21.032;2022-12-24T10:39:22;6.70;99.90
18613;DHT22;9436;52.152;21.032;2022-12-24T10:41:52;6.70;99.90
18613;DHT22;9436;52.152;21.032;2022-12-24T10:44:21;6.60;99.90
18613;DHT22;9436;52.152;21.032;2022-12-24T10:46:49;6.60;99.90
18613;DHT22;9436;52.152;21.032;2022-12-24T10:49:18;6.50;99.90
18613;DHT22;9436;52.152;21.032;2022-12-24T10:51:48;6.50;99.90
18613;DHT22;9436;52.152;21.032;2022-12-24T10:54:19;6.50;99.90
18613;DHT22;9436;52.152;21.032;2022-12-24T10:56:48;6.50;99.90
18613;DHT22;9436;52.152;21.032;2022-12-24T10:59:21;6.50;99.90
18613;DHT22;9436;52.152;21.032;2022-12-24T11:01:49;6.60;99.90
18613;DHT22;9436;52.152;21.032;2022-12-24T11:04:18;6.50;99.90
18613;DHT22;9436;52.152;21.032;2022-12-24T11:06:51;6.50;99.90
18613;DHT22;9436;52.152;21.032;2022-12-24T11:09:22;6.40;99.90
18613;DHT22;9436;52.152;21.032;2022-12-24T11:11:49;6.50;99.90
18613;DHT22;9436;52.152;21.032;2022-12-24T11:14:19;6.40;99.90
18613;DHT22;9436;52.152;21.032;2022-12-24T11:16:50;6.40;99.90
18613;DHT22;9436;52.152;21.032;2022-12-24T11:19:19;6.40;99.90
18613;DHT22;9436;52.152;21.032;2022-12-24T11:21:48;6.50;99.90
18613;DHT22;9436;52.152;21.032;2022-12-24T11:24:26;6.50;99.90
18613;DHT22;9436;52.152;21.032;2022-12-24T11:26:54;6.50;99.90
18613;DHT22;9436;52.152;21.032;2022-12-24T11:29:41;6.30;99.90
18613;DHT22;9436;52.152;21.032;2022-12-24T11:32:15;6.40;99.90
18613;DHT22;9436;52.152;21.032;2022-12-24T11:34:43;6.30;99.90
18613;DHT22;9436;52.152;21.032;2022-12-24T11:37:15;6.30;99.90
18613;DHT22;9436;52.152;21.032;2022-12-24T11:39:46;6.20;99.90
18613;DHT22;9436;52.152;21.032;2022-12-24T11:42:21;6.30;99.90
18613;DHT22;9436;52.152;21.032;2022-12-24T11:44:49;6.30;99.90
18613;DHT22;9436;52.152;21.032;2022-12-24T11:47:16;6.20;99.90
18613;DHT22;9436;52.152;21.032;2022-12-24T11:49:43;6.30;99.90
18613;DHT22;9436;52.152;21.032;2022-12-24T11:52:17;6.40;99.90
18613;DHT22;9436;52.152;21.032;2022-12-24T11:54:56;6.40;99.90
18613;DHT22;9436;52.152;21.032;2022-12-24T11:57:33;6.40;99.90
18613;DHT22;9436;52.152;21.032;2022-12-24T12:00:03;6.40;99.90
18613;DHT22;9436;52.152;21.032;2022-12-24T12:02:33;6.40;99.90
18613;DHT22;9436;52.152;21.032;2022-12-24T12:05:06;6.40;99.90
18613;DHT22;9436;52.152;21.032;2022-12-24T12:07:36;6.40;99.90
18613;DHT22;9436;52.152;21.032;2022-12-24T12:10:09;6.40;99.90
18613;DHT22;9436;52.152;21.032;2022-12-24T12:12:41;6.30;99.90
18613;DHT22;9436;52.152;21.032;2022-12-24T12:15:12;6.30;99.90
18613;DHT22;9436;52.152;21.032;2022-12-24T12:17:43;6.30;99.90
18613;DHT22;9436;52.152;21.032;2022-12-24T12:20:15;6.30;99.90
18613;DHT22;9436;52.152;21.032;2022-12-24T12:22:49;6.40;99.90
18613;DHT22;9436;52.152;21.032;2022-12-24T12:25:21;6.40;99.90
18613;DHT22;9436;52.152;21.032;2022-12-24T12:27:52;6.40;99.90
18613;DHT22;9436;52.152;21.032;2022-12-24T12:30:21;6.40;99.90
18613;DHT22;9436;52.152;21.032;2022-12-24T12:32:52;6.40;99.90
18613;DHT22;9436;52.152;21.032;2022-12-24T12:35:25;6.40;99.90
18613;DHT22;9436;52.152;21.032;2022-12-24T12:37:56;6.50;99.90
18613;DHT22;9436;52.152;21.032;2022-12-24T12:40:35;6.50;99.90
18613;DHT22;9436;52.152;21.032;2022-12-24T12:43:10;6.50;99.90
18613;DHT22;9436;52.152;21.032;2022-12-24T12:45:42;6.50;99.90
18613;DHT22;9436;52.152;21.032;2022-12-24T12:51:07;6.50;99.90
18613;DHT22;9436;52.152;21.032;2022-12-24T12:53:47;6.50;99.90
18613;DHT22;9436;52.152;21.032;2022-12-24T12:56:24;6.50;99.90
18613;DHT22;9436;52.152;21.032;2022-12-24T12:58:58;6.50;99.90
18613;DHT22;9436;52.152;21.032;2022-12-24T13:01:35;6.50;99.90
18613;DHT22;9436;52.152;21.032;2022-12-24T13:04:21;6.50;99.90
18613;DHT22;9436;52.152;21.032;2022-12-24T13:07:10;6.40;99.90
18613;DHT22;9436;52.152;21.032;2022-12-24T13:12:33;6.50;99.90
18613;DHT22;9436;52.152;21.032;2022-12-24T13:15:21;6.50;99.90
18613;DHT22;9436;52.152;21.032;2022-12-24T13:18:10;6.50;99.90
18613;DHT22;9436;52.152;21.032;2022-12-24T13:20:45;6.50;99.90
18613;DHT22;9436;52.152;21.032;2022-12-24T13:23:14;6.50;99.90
18613;DHT22;9436;52.152;21.032;2022-12-24T13:25:44;6.50;99.90
18613;DHT22;9436;52.152;21.032;2022-12-24T13:28:29;6.60;99.90
18613;DHT22;9436;52.152;21.032;2022-12-24T13:33:46;6.70;99.90
18613;DHT22;9436;52.152;21.032;2022-12-24T13:36:14;6.70;99.90
18613;DHT22;9436;52.152;21.032;2022-12-24T13:38:42;6.70;99.90
18613;DHT22;9436;52.152;21.032;2022-12-24T13:49:17;6.60;99.90
18613;DHT22;9436;52.152;21.032;2022-12-24T13:51:45;6.50;99.90
18613;DHT22;9436;52.152;21.032;2022-12-24T13:54:13;6.50;99.90
18613;DHT22;9436;52.152;21.032;2022-12-24T13:56:41;6.50;99.90
18613;DHT22;9436;52.152;21.032;2022-12-24T13:59:18;6.60;99.90
18613;DHT22;9436;52.152;21.032;2022-12-24T14:01:49;6.60;99.90
18613;DHT22;9436;52.152;21.032;2022-12-24T14:04:24;6.60;99.90
18613;DHT22;9436;52.152;21.032;2022-12-24T14:06:52;6.60;99.90
18613;DHT22;9436;52.152;21.032;2022-12-24T14:09:21;6.60;99.90
18613;DHT22;9436;52.152;21.032;2022-12-24T14:14:35;6.50;99.90
18613;DHT22;9436;52.152;21.032;2022-12-24T14:17:11;6.60;99.90
18613;DHT22;9436;52.152;21.032;2022-12-24T14:19:42;6.50;99.90
18613;DHT22;9436;52.152;21.032;2022-12-24T14:22:19;6.50;99.90
18613;DHT22;9436;52.152;21.032;2022-12-24T14:24:53;6.50;99.90
18613;DHT22;9436;52.152;21.032;2022-12-24T14:27:25;6.40;99.90
18613;DHT22;9436;52.152;21.032;2022-12-24T14:30:00;6.40;99.90
18613;DHT22;9436;52.152;21.032;2022-12-24T14:32:33;6.40;99.90
18613;DHT22;9436;52.152;21.032;2022-12-24T14:35:05;6.40;99.90
18613;DHT22;9436;52.152;21.032;2022-12-24T14:37:32;6.50;99.90
18613;DHT22;9436;52.152;21.032;2022-12-24T14:39:59;6.50;99.90
18613;DHT22;9436;52.152;21.032;2022-12-24T14:42:35;6.50;99.90
18613;DHT22;9436;52.152;21.032;2022-12-24T14:45:13;6.50;99.90
18613;DHT22;9436;52.152;21.032;2022-12-24T14:47:45;6.30;99.90
18613;DHT22;9436;52.152;21.032;2022-12-24T14:53:06;6.20;99.90
18613;DHT22;9436;52.152;21.032;2022-12-24T14:55:40;6.20;99.90
18613;DHT22;9436;52.152;21.032;2022-12-24T14:58:24;6.30;99.90
18613;DHT22;9436;52.152;21.032;2022-12-24T15:00:53;6.30;99.90
18613;DHT22;9436;52.152;21.032;2022-12-24T15:03:22;6.30;99.90
18613;DHT22;9436;52.152;21.032;2022-12-24T15:05:52;6.30;99.90
18613;DHT22;9436;52.152;21.032;2022-12-24T15:08:26;6.30;99.90
18613;DHT22;9436;52.152;21.032;2022-12-24T15:10:56;6.30;99.90
18613;DHT22;9436;52.152;21.032;2022-12-24T15:13:28;6.30;99.90
18613;DHT22;9436;52.152;21.032;2022-12-24T15:15:59;6.30;99.90
18613;DHT22;9436;52.152;21.032;2022-12-24T15:18:28;6.40;99.90
18613;DHT22;9436;52.152;21.032;2022-12-24T15:20:58;6.40;99.90
18613;DHT22;9436;52.152;21.032;2022-12-24T15:23:29;6.30;99.90
18613;DHT22;9436;52.152;21.032;2022-12-24T15:28:36;6.10;99.90
18613;DHT22;9436;52.152;21.032;2022-12-24T15:31:07;6.00;99.90
18613;DHT22;9436;52.152;21.032;2022-12-24T15:33:36;6.00;99.90
18613;DHT22;9436;52.152;21.032;2022-12-24T15:36:04;5.90;99.90
18613;DHT22;9436;52.152;21.032;2022-12-24T15:38:35;5.80;99.90
18613;DHT22;9436;52.152;21.032;2022-12-24T15:41:05;5.70;99.90
18613;DHT22;9436;52.152;21.032;2022-12-24T15:43:38;5.70;99.90
18613;DHT22;9436;52.152;21.032;2022-12-24T15:46:06;5.60;99.90
18613;DHT22;9436;52.152;21.032;2022-12-24T15:48:33;5.60;99.90
18613;DHT22;9436;52.152;21.032;2022-12-24T15:51:04;5.60;99.90
18613;DHT22;9436;52.152;21.032;2022-12-24T15:53:35;5.60;99.90
18613;DHT22;9436;52.152;21.032;2022-12-24T15:56:06;5.60;99.90
18613;DHT22;9436;52.152;21.032;2022-12-24T15:58:35;5.60;99.90
18613;DHT22;9436;52.152;21.032;2022-12-24T16:01:25;5.50;99.90
18613;DHT22;9436;52.152;21.032;2022-12-24T16:03:56;5.50;99.90
18613;DHT22;9436;52.152;21.032;2022-12-24T16:06:24;5.50;99.90
18613;DHT22;9436;52.152;21.032;2022-12-24T16:08:54;5.50;99.90
18613;DHT22;9436;52.152;21.032;2022-12-24T16:11:24;5.50;99.90
18613;DHT22;9436;52.152;21.032;2022-12-24T16:14:00;5.50;99.90
18613;DHT22;9436;52.152;21.032;2022-12-24T16:16:35;5.60;99.90
18613;DHT22;9436;52.152;21.032;2022-12-24T16:19:04;5.60;99.90
18613;DHT22;9436;52.152;21.032;2022-12-24T16:21:33;5.70;99.90
18613;DHT22;9436;52.152;21.032;2022-12-24T16:24:06;5.60;99.90
18613;DHT22;9436;52.152;21.032;2022-12-24T16:26:33;5.60;99.90